Terminal Aerodrome Forecast
Issued by NWS Blacksburg, VA

Current Version | Previous Version | Graphics & Text | Print | Product List | Glossary Off
Versions: 1 2 3 4 5 6 7 8 9 10 11 12 13 14 15 16 17 18 19 20 21 22 23 24 25 26 27 28 29 30 31 32 33 34 35 36 37

000
FTUS41 KRNK 291122
TAFBLF
TAF
KBLF 291122Z 2912/3012 27006KT P6SM SCT035
     FM291800 28010G18KT P6SM SCT150
     FM300000 26004KT P6SM OVC100
     FM300600 10003KT P6SM OVC050=

USA.gov is the U.S. government's official web portal to all federal, state and local government web resources and services.